Hlavní strana
METAR-TAF:

METAR-TAF

Letiště :

Sandefjord, Norsko

zeměpisná šířka: 59-12N, zeměpisná délka: 010-16E, výška: 8 m

Aktuální stav počasí

Zpráva byla vytvořena před 38 minutami, v 21:50 UTC
Jihozápadní vítr 6 kt
Teplota 5°C
Vlhkost vzduchu 70%
Tlak 1017 hPa
Viditelnost 10 km a více
Žádná oblačnost pod 1500 m, nevyskytují se cumulonimby.

METAR: ENTO 262150Z 22006KT CAVOK 05/00 Q1017 NOSIG

Čas: 23:28 (22:28 UTC)

Předpověď počasí

Předpověď platná od 26 v 18 UTC do 27 v 18 UTC
Západojihozápadní vítr 8 kt
Viditelnost 10 km a více
Žádná oblačnost pod 1500 m, nevyskytují se cumulonimby.
Změna
od 27 v 04 UTC do 27 v 07 UTC
Severní vítr 10 kt
Změna
od 27 v 14 UTC do 27 v 16 UTC
Jihojihozápadní vítr 10 kt

TAF: ENTO 2618/2718 24008KT CAVOK BECMG 2704/2707 36010KT BECMG 2714/2716 21010KT

Stav a předpovědi počasí z více než 4 000 letišť (zprávy METAR a TAF).

Červené a žluté tečky na mapě představují dostupné meteorologické stanice.

Když kurzor umístíte na tečku, zobrazí se název stanice.

Pak kliknutím zobrazíte stav a předpověď počasí.

Chcete-li změnit mapu, kliknutím na zelené tlačítko se znaménkem +mapu přiblížíte, kliknutím na zelené tlačítko se znaménkem – mapu oddálíte a kliknutím na zelené šipky přejdete na sousední mapy.


METAR-TAF: